Friday, November 24, 2017, 12:40 AM EST
Back to Local

KAUG, Augusta State Airport

Location: Augusta, ME, United States Lat: 44.317
Local Time: 12:40 AM EST ( 5:40 GMT) Lon: -69.8
Time Zone: US/Eastern Elev: 351 ft

Show me the last for .
Show Decoded

2017-11-23 23:53 METAR KAUG 240453Z AUTO 22003KT 10SM OVC100 M01/M08 A2990 RMK AO2 SLP131
                 T10111078 400221028 =
2017-11-23 22:53 METAR KAUG 240353Z AUTO 00000KT 10SM OVC100 M01/M09 A2990 RMK AO2 SLP131
                 T10061089 =
2017-11-23 21:53 METAR KAUG 240253Z AUTO 00000KT 10SM OVC095 M01/M09 A2992 RMK AO2 SLP136
                 T10061094 56008 =
2017-11-23 20:53 METAR KAUG 240153Z AUTO 27004KT 10SM OVC095 M01/M09 A2993 RMK AO2 SLP139
                 T10061089 =
2017-11-23 19:53 METAR KAUG 240053Z AUTO 00000KT 10SM OVC100 M01/M09 A2993 RMK AO2 SLP141
                 T10061089 =
2017-11-23 18:53 METAR KAUG 232353Z AUTO 00000KT 10SM OVC100 M01/M09 A2995 RMK AO2 SLP145
                 T10061094 10022 21011 52001 =
2017-11-23 17:53 METAR KAUG 232253Z AUTO 32006KT 10SM OVC100 M01/M09 A2994 RMK AO2 SLP145
                 T10111089 =
2017-11-23 16:53 METAR KAUG 232153Z AUTO 30006KT 10SM OVC110 M01/M09 A2995 RMK AO2 SLP146
                 T10061094 =
2017-11-23 15:53 METAR KAUG 232053Z AUTO 29005KT 10SM OVC120 00/M09 A2994 RMK AO2 SLP144
                 T00001094 53007 =
2017-11-23 14:53 METAR KAUG 231953Z AUTO 26005KT 10SM CLR 01/M09 A2993 RMK AO2 SLP138 T00061089 =
2017-11-23 13:53 METAR KAUG 231853Z AUTO 29008KT 10SM CLR 02/M09 A2992 RMK AO2 SLP136 T00171089 =
2017-11-23 12:53 METAR KAUG 231753Z AUTO 29009KT 10SM CLR 02/M08 A2992 RMK AO2 SLP137 T00171083
                 10017 21028 58013 =
2017-11-23 11:53 METAR KAUG 231653Z AUTO 28008KT 240V310 10SM CLR 01/M08 A2994 RMK AO2 SLP142
                 T00111083 =
2017-11-23 10:53 METAR KAUG 231553Z AUTO 28009KT 10SM CLR 00/M09 A2995 RMK AO2 SLP146 T00001089 =
2017-11-23 09:53 METAR KAUG 231453Z AUTO 30010KT 10SM CLR M01/M09 A2996 RMK AO2 SLP150 T10061089
                 51007 =
2017-11-23 08:53 METAR KAUG 231353Z AUTO 29007G15KT 240V320 10SM CLR M02/M09 A2996 RMK AO2 SLP150
                 T10171089 =
2017-11-23 07:53 METAR KAUG 231253Z AUTO 25007KT 10SM CLR M02/M08 A2997 RMK AO2 PRESRR SLP152
                 T10221083 =
2017-11-23 06:53 METAR KAUG 231153Z AUTO 29009KT 10SM CLR M03/M08 A2994 RMK AO2 SLP142 70061
                 T10281083 10011 21028 52020 =
2017-11-23 05:53 METAR KAUG 231053Z AUTO 33007KT 10SM CLR M02/M08 A2992 RMK AO2 SLP135 T10221078
                 =
2017-11-23 04:53 METAR KAUG 230953Z AUTO 31008KT 270V340 10SM CLR M02/M07 A2990 RMK AO2 SLP130
                 T10171072 =
2017-11-23 03:53 METAR KAUG 230853Z AUTO 32015G24KT 10SM CLR M01/M07 A2988 RMK AO2 SLP122
                 T10061067 50014 =
2017-11-23 02:53 METAR KAUG 230753Z AUTO 30006KT 10SM CLR M01/M06 A2989 RMK AO2 SLP127 T10061056
                 =
2017-11-23 01:53 METAR KAUG 230653Z AUTO 31007KT 10SM CLR 00/M06 A2987 RMK AO2 PK WND 32027/0633
                 SLP118 T00001056 =
2017-11-23 00:53 METAR KAUG 230553Z AUTO 30010G18KT 10SM BKN040 01/M04 A2984 RMK AO2 SLP107 60005
                 T00111039 10033 20011 53018 =

Support USWX by starting your Amazon purchase here.